Time;durP1;ratioP1;P1;durP2;ratioP2;P2;SDS_P1;SDS_P2;PMS_P1;PMS_P2;Temp;Humidity;BMP_temperature;BMP_pressure;BME280_temperature;BME280_humidity;BME280_pressure;Samples;Min_cycle;Max_cycle;Signal;HPM_P1;HPM_P2
2023/10/28 00:01:06;;;;;;;14.95;11.85;;;9.70;92.00;;;;;;5090127;28;20269;-46
2023/10/28 00:03:45;;;;;;;13.57;10.75;;;9.70;92.00;;;;;;5106372;28;20040;-46
2023/10/28 00:06:13;;;;;;;14.00;11.98;;;9.70;92.10;;;;;;5108483;28;20160;-46
2023/10/28 00:08:40;;;;;;;13.80;10.75;;;9.70;92.30;;;;;;5103992;28;20123;-48
2023/10/28 00:11:08;;;;;;;13.90;12.10;;;9.70;92.20;;;;;;5105573;28;20008;-49
2023/10/28 00:13:35;;;;;;;12.80;11.40;;;9.60;92.40;;;;;;5105045;28;20392;-49
2023/10/28 00:16:02;;;;;;;12.43;10.23;;;9.60;92.50;;;;;;5103849;28;20063;-48
2023/10/28 00:18:38;;;;;;;14.43;11.73;;;9.70;92.60;;;;;;5103782;28;20034;-47
2023/10/28 00:21:07;;;;;;;13.55;11.55;;;9.70;92.60;;;;;;5105119;28;20038;-47
2023/10/28 00:23:38;;;;;;;12.23;10.90;;;9.70;92.70;;;;;;5094480;28;20126;-47
2023/10/28 00:26:10;;;;;;;12.50;10.40;;;9.70;92.70;;;;;;5094904;28;20043;-47
2023/10/28 00:28:39;;;;;;;14.05;10.95;;;9.70;92.60;;;;;;5095453;28;20020;-48
2023/10/28 00:31:07;;;;;;;12.25;9.85;;;9.70;92.70;;;;;;5098763;28;20020;-47
2023/10/28 00:33:34;;;;;;;12.88;11.05;;;9.60;92.60;;;;;;5102164;28;20051;-47
2023/10/28 00:36:11;;;;;;;11.70;10.40;;;9.60;92.70;;;;;;5095133;28;20019;-47
2023/10/28 00:38:40;;;;;;;11.40;9.43;;;9.60;92.70;;;;;;5094680;28;20031;-49
2023/10/28 00:41:11;;;;;;;13.00;9.75;;;9.60;92.80;;;;;;5102148;27;20381;-49
2023/10/28 00:43:38;;;;;;;11.73;9.82;;;9.70;92.80;;;;;;5115780;28;20455;-47
2023/10/28 00:46:12;;;;;;;11.50;10.30;;;9.70;92.80;;;;;;5093657;28;20394;-50
2023/10/28 00:48:39;;;;;;;11.02;8.95;;;9.70;92.80;;;;;;5096968;27;20094;-48
2023/10/28 00:51:06;;;;;;;11.50;9.40;;;9.70;92.80;;;;;;5097184;28;20569;-47
2023/10/28 00:53:35;;;;;;;11.43;9.80;;;9.60;92.70;;;;;;5096052;28;20063;-47
2023/10/28 00:56:05;;;;;;;10.98;9.55;;;9.70;92.80;;;;;;5094115;28;20491;-48
2023/10/28 00:58:35;;;;;;;10.73;9.30;;;9.60;92.80;;;;;;5109902;28;20097;-44
2023/10/28 01:01:06;;;;;;;11.43;9.45;;;9.60;92.80;;;;;;5086992;28;20418;-49
2023/10/28 01:03:36;;;;;;;11.48;10.23;;;9.60;92.90;;;;;;5095343;28;20119;-50
2023/10/28 01:06:04;;;;;;;11.13;9.70;;;9.60;93.00;;;;;;5078789;28;20043;-48
2023/10/28 01:08:30;;;;;;;11.65;10.00;;;9.60;93.00;;;;;;5105076;28;20043;-49
2023/10/28 01:11:01;;;;;;;11.77;9.32;;;9.60;93.10;;;;;;5094541;28;20024;-47
2023/10/28 01:13:31;;;;;;;12.73;10.25;;;9.60;93.10;;;;;;5095587;27;20024;-47
2023/10/28 01:16:00;;;;;;;12.93;10.27;;;9.60;93.40;;;;;;5096475;28;20364;-47
2023/10/28 01:18:30;;;;;;;11.52;9.63;;;9.60;93.40;;;;;;5076413;28;20020;-49
2023/10/28 01:20:56;;;;;;;13.38;10.52;;;9.50;93.60;;;;;;5102615;27;20040;-48
2023/10/28 01:23:21;;;;;;;11.43;9.73;;;9.50;93.70;;;;;;5079661;28;20378;-48
2023/10/28 01:25:51;;;;;;;12.90;11.23;;;9.50;93.90;;;;;;5091896;28;20032;-45
2023/10/28 01:28:18;;;;;;;11.52;10.32;;;9.50;93.90;;;;;;5089320;28;20031;-45
2023/10/28 01:30:46;;;;;;;14.23;11.40;;;9.50;93.90;;;;;;5085796;28;20027;-47
2023/10/28 01:33:13;;;;;;;12.65;10.48;;;9.50;94.00;;;;;;5101016;28;20039;-48
2023/10/28 01:35:40;;;;;;;13.50;10.82;;;9.50;94.10;;;;;;5102558;28;20020;-45
2023/10/28 01:38:09;;;;;;;14.02;11.27;;;9.50;94.20;;;;;;5102629;28;20038;-45
2023/10/28 01:40:37;;;;;;;17.27;11.63;;;9.50;94.20;;;;;;5093730;28;20445;-45
2023/10/28 01:43:04;;;;;;;14.80;12.82;;;9.50;94.20;;;;;;5092660;28;20032;-46
2023/10/28 01:45:32;;;;;;;14.93;12.45;;;9.50;94.30;;;;;;5087155;28;20155;-46
2023/10/28 01:48:01;;;;;;;18.13;13.40;;;9.50;94.40;;;;;;5085137;28;20029;-45
2023/10/28 01:50:30;;;;;;;18.73;13.48;;;9.40;94.30;;;;;;5093503;28;20437;-45
2023/10/28 01:53:03;;;;;;;14.43;11.57;;;9.50;94.50;;;;;;5097507;28;20107;-45
2023/10/28 01:55:29;;;;;;;16.88;13.02;;;9.50;94.40;;;;;;5076058;28;20480;-45
2023/10/28 01:57:56;;;;;;;16.63;14.80;;;9.50;94.50;;;;;;5084693;28;20074;-47
2023/10/28 02:00:22;;;;;;;18.13;14.98;;;9.40;94.50;;;;;;5092073;28;20429;-46
2023/10/28 02:02:51;;;;;;;17.00;14.50;;;9.40;94.50;;;;;;5094882;28;20021;-46
2023/10/28 02:05:18;;;;;;;16.30;13.45;;;9.40;94.50;;;;;;5093507;28;20020;-48
2023/10/28 02:07:46;;;;;;;21.58;13.77;;;9.40;94.60;;;;;;5094089;28;20016;-48
2023/10/28 02:10:14;;;;;;;16.30;13.30;;;9.40;94.60;;;;;;5093516;28;20418;-51
2023/10/28 02:12:41;;;;;;;17.58;14.57;;;9.40;94.70;;;;;;5080252;28;20059;-48
2023/10/28 02:15:11;;;;;;;15.95;12.90;;;9.40;94.70;;;;;;5094401;28;20032;-47
2023/10/28 02:17:39;;;;;;;17.10;13.80;;;9.40;94.70;;;;;;5095522;28;20446;-46
2023/10/28 02:20:06;;;;;;;16.80;12.93;;;9.40;94.80;;;;;;5075625;28;20093;-48
2023/10/28 02:22:34;;;;;;;15.10;13.38;;;9.40;94.80;;;;;;5098206;28;20020;-46
2023/10/28 02:25:10;;;;;;;16.73;14.02;;;9.40;94.80;;;;;;5092518;28;20020;-46
2023/10/28 02:27:37;;;;;;;18.20;15.65;;;9.40;94.90;;;;;;5094419;28;20054;-47
2023/10/28 02:30:09;;;;;;;19.88;14.85;;;9.40;94.90;;;;;;5092797;28;20012;-45
2023/10/28 02:32:37;;;;;;;21.15;16.73;;;9.40;95.00;;;;;;5071440;28;20035;-49
2023/10/28 02:35:08;;;;;;;18.30;15.40;;;9.40;95.00;;;;;;5105952;28;20028;-46
2023/10/28 02:37:33;;;;;;;19.45;15.02;;;9.40;95.00;;;;;;5092982;28;20224;-45
2023/10/28 02:40:00;;;;;;;19.02;15.68;;;9.40;95.10;;;;;;5093257;28;20127;-48
2023/10/28 02:42:26;;;;;;;19.63;15.45;;;9.40;95.00;;;;;;5093226;28;20020;-45
2023/10/28 02:44:53;;;;;;;16.98;14.32;;;9.40;95.10;;;;;;5092611;28;20461;-46
2023/10/28 02:47:23;;;;;;;17.77;15.55;;;9.40;95.00;;;;;;5095291;28;20036;-48
2023/10/28 02:49:50;;;;;;;17.83;15.52;;;9.40;95.00;;;;;;5093370;28;20024;-49
2023/10/28 02:52:15;;;;;;;18.60;14.98;;;9.40;95.00;;;;;;5097293;28;20559;-49
2023/10/28 02:54:43;;;;;;;17.02;14.02;;;9.40;95.10;;;;;;5078393;28;20123;-48
2023/10/28 02:57:13;;;;;;;17.60;14.77;;;9.40;95.20;;;;;;5093862;28;20369;-49
2023/10/28 02:59:41;;;;;;;17.75;15.02;;;9.40;95.10;;;;;;5100513;28;20164;-48
2023/10/28 03:02:06;;;;;;;18.80;15.40;;;9.40;95.10;;;;;;5080954;28;20103;-49
2023/10/28 03:04:32;;;;;;;18.77;14.75;;;9.40;95.20;;;;;;5091913;28;20165;-47
2023/10/28 03:06:59;;;;;;;19.38;16.25;;;9.40;95.20;;;;;;5113176;28;20342;-46
2023/10/28 03:09:27;;;;;;;17.02;14.80;;;9.40;95.20;;;;;;5112012;28;20027;-47
2023/10/28 03:11:52;;;;;;;17.80;15.55;;;9.40;95.20;;;;;;5095089;28;20039;-48
2023/10/28 03:14:19;;;;;;;16.83;14.82;;;9.40;95.30;;;;;;5092797;28;20438;-46
2023/10/28 03:16:46;;;;;;;16.23;14.50;;;9.40;95.30;;;;;;5102845;28;20032;-47
2023/10/28 03:19:12;;;;;;;16.85;14.75;;;9.40;95.30;;;;;;5094852;28;20023;-47
2023/10/28 03:21:39;;;;;;;18.65;14.93;;;9.40;95.30;;;;;;5109512;28;20042;-46
2023/10/28 03:24:07;;;;;;;16.60;14.23;;;9.40;95.40;;;;;;5093056;28;20102;-46
2023/10/28 03:26:33;;;;;;;18.52;14.50;;;9.40;95.30;;;;;;5113138;28;20023;-46
2023/10/28 03:29:06;;;;;;;17.00;14.15;;;9.30;95.30;;;;;;5088630;28;20032;-45
2023/10/28 03:31:32;;;;;;;16.60;13.25;;;9.30;95.40;;;;;;5092542;28;20032;-46
2023/10/28 03:33:59;;;;;;;17.63;13.75;;;9.40;95.40;;;;;;5094639;28;20020;-46
2023/10/28 03:36:27;;;;;;;15.95;13.77;;;9.30;95.40;;;;;;5097029;28;20103;-48
2023/10/28 03:38:56;;;;;;;16.35;13.00;;;9.40;95.40;;;;;;5092845;28;20506;-46
2023/10/28 03:41:24;;;;;;;;;;;9.30;95.30;;;;;;5075427;28;20035;-47
2023/10/28 03:43:52;;;;;;;16.08;13.60;;;9.40;95.40;;;;;;5083270;28;19935;-46
2023/10/28 03:46:21;;;;;;;16.23;14.00;;;9.40;95.30;;;;;;5100836;28;20106;-49
2023/10/28 03:48:48;;;;;;;16.13;13.70;;;9.30;95.30;;;;;;5106894;28;20441;-47
2023/10/28 03:51:15;;;;;;;16.75;13.52;;;9.30;95.40;;;;;;5104985;28;20361;-46
2023/10/28 03:53:43;;;;;;;14.05;12.00;;;9.30;95.40;;;;;;5094713;28;20038;-45
2023/10/28 03:56:10;;;;;;;17.88;13.85;;;9.30;95.40;;;;;;5094653;28;20019;-48
2023/10/28 03:58:38;;;;;;;15.27;13.63;;;9.30;95.50;;;;;;5097406;28;20024;-47
2023/10/28 04:01:05;;;;;;;15.52;12.57;;;9.30;95.50;;;;;;5104697;28;20028;-46
2023/10/28 04:03:32;;;;;;;16.13;14.18;;;9.30;95.50;;;;;;5094905;28;20035;-46
2023/10/28 04:05:58;;;;;;;15.35;13.10;;;9.30;95.50;;;;;;5099507;28;20024;-48
2023/10/28 04:08:27;;;;;;;16.00;13.75;;;9.30;95.40;;;;;;5109685;28;20024;-48
2023/10/28 04:10:52;;;;;;;16.83;13.70;;;9.30;95.50;;;;;;5112606;28;20042;-45
2023/10/28 04:13:19;;;;;;;17.17;14.20;;;9.20;95.50;;;;;;5107749;28;20437;-45
2023/10/28 04:15:49;;;;;;;18.20;14.27;;;9.20;95.50;;;;;;5098861;28;20024;-46
2023/10/28 04:18:14;;;;;;;19.08;14.77;;;9.20;95.40;;;;;;5100222;28;20035;-48
2023/10/28 04:20:41;;;;;;;18.25;14.70;;;9.20;95.50;;;;;;5102857;28;20153;-47
2023/10/28 04:23:08;;;;;;;20.20;16.00;;;9.20;95.50;;;;;;5081779;28;20036;-45
2023/10/28 04:25:35;;;;;;;19.23;15.75;;;9.20;95.40;;;;;;5101380;28;20037;-46
2023/10/28 04:28:03;;;;;;;20.15;15.23;;;9.30;95.50;;;;;;5102459;28;20023;-45
2023/10/28 04:30:30;;;;;;;23.02;17.80;;;9.20;95.50;;;;;;5102830;28;20377;-45
2023/10/28 04:32:57;;;;;;;21.98;17.48;;;9.30;95.50;;;;;;5106189;28;20035;-47
2023/10/28 04:35:27;;;;;;;23.13;17.80;;;9.20;95.50;;;;;;5106392;28;20506;-45
2023/10/28 04:37:53;;;;;;;;;;;9.30;95.50;;;;;;5116257;28;20053;-51
2023/10/28 04:40:19;;;;;;;23.42;18.10;;;9.30;95.60;;;;;;5113176;28;19911;-46
2023/10/28 04:42:47;;;;;;;22.80;17.55;;;9.20;95.50;;;;;;5113398;28;20516;-47
2023/10/28 04:45:25;;;;;;;23.75;18.27;;;9.20;95.50;;;;;;5101660;28;20089;-48
2023/10/28 04:47:53;;;;;;;24.57;19.90;;;9.30;95.60;;;;;;5097810;28;20020;-45
2023/10/28 04:50:20;;;;;;;22.23;16.42;;;9.30;95.50;;;;;;5114936;28;20027;-47
2023/10/28 04:52:46;;;;;;;20.60;16.80;;;9.30;95.60;;;;;;5115114;28;20034;-45
2023/10/28 04:55:13;;;;;;;18.70;15.80;;;9.30;95.60;;;;;;5104547;28;20032;-49
2023/10/28 04:57:40;;;;;;;19.95;15.50;;;9.30;95.60;;;;;;5103514;28;20024;-47
2023/10/28 05:00:08;;;;;;;18.13;14.52;;;9.20;95.50;;;;;;5104760;28;20027;-46
2023/10/28 05:02:35;;;;;;;17.33;14.30;;;9.30;95.60;;;;;;5084755;28;20032;-46
2023/10/28 05:05:01;;;;;;;16.70;13.23;;;9.30;95.70;;;;;;5082235;28;20150;-49
2023/10/28 05:07:29;;;;;;;18.02;13.98;;;9.30;95.60;;;;;;5104476;28;20087;-45
2023/10/28 05:09:56;;;;;;;16.20;12.15;;;9.30;95.70;;;;;;5104799;28;20438;-48
2023/10/28 05:12:22;;;;;;;17.65;13.38;;;9.30;95.60;;;;;;5102778;28;20071;-46
2023/10/28 05:14:49;;;;;;;17.92;13.73;;;9.30;95.70;;;;;;5104293;28;20027;-48
2023/10/28 05:17:16;;;;;;;19.38;14.52;;;9.30;95.70;;;;;;5103239;28;20059;-48
2023/10/28 05:19:43;;;;;;;19.48;13.63;;;9.30;95.70;;;;;;5097480;28;20086;-47
2023/10/28 05:22:10;;;;;;;20.85;13.80;;;9.40;95.70;;;;;;5094691;28;20138;-47
2023/10/28 05:24:38;;;;;;;19.23;14.75;;;9.30;95.60;;;;;;5095164;28;20052;-46
2023/10/28 05:27:06;;;;;;;17.67;12.90;;;9.30;95.60;;;;;;5098775;28;20483;-48
2023/10/28 05:29:36;;;;;;;21.65;14.35;;;9.30;95.70;;;;;;5103495;28;20014;-50
2023/10/28 05:32:04;;;;;;;21.85;14.02;;;9.30;95.70;;;;;;5104615;28;20031;-48
2023/10/28 05:34:31;;;;;;;24.83;15.02;;;9.40;95.70;;;;;;5102375;28;20474;-45
2023/10/28 05:36:58;;;;;;;21.65;14.80;;;9.30;95.70;;;;;;5105109;28;20491;-45
2023/10/28 05:39:24;;;;;;;20.38;13.65;;;9.30;95.80;;;;;;5102300;28;20471;-46
2023/10/28 05:41:50;;;;;;;21.30;14.63;;;9.40;95.80;;;;;;5104248;28;20078;-49
2023/10/28 05:44:17;;;;;;;21.83;14.55;;;9.40;95.80;;;;;;5098872;28;20052;-47
2023/10/28 05:46:44;;;;;;;22.60;14.43;;;9.40;95.80;;;;;;5097249;28;20024;-46
2023/10/28 05:49:12;;;;;;;20.25;14.73;;;9.40;95.80;;;;;;5095615;28;20625;-45
2023/10/28 05:51:39;;;;;;;21.80;13.75;;;9.40;95.90;;;;;;5097193;28;20464;-47
2023/10/28 05:54:07;;;;;;;26.23;14.70;;;9.40;95.80;;;;;;5085506;28;20036;-50
2023/10/28 05:56:39;;;;;;;22.80;16.35;;;9.40;95.90;;;;;;5105650;28;20022;-46
2023/10/28 05:59:08;;;;;;;20.85;14.57;;;9.40;95.90;;;;;;5103296;28;20020;-47
2023/10/28 06:01:36;;;;;;;22.75;14.63;;;9.40;95.90;;;;;;5100427;28;20039;-45
2023/10/28 06:04:04;;;;;;;25.20;16.15;;;9.40;96.00;;;;;;5085352;28;20062;-45
2023/10/28 06:06:33;;;;;;;21.02;14.48;;;9.40;96.00;;;;;;5096856;28;20027;-46
2023/10/28 06:09:01;;;;;;;26.02;17.00;;;9.40;96.00;;;;;;5095951;28;20017;-47
2023/10/28 06:11:28;;;;;;;25.25;15.73;;;9.40;96.00;;;;;;5105882;28;20035;-47
2023/10/28 06:13:55;;;;;;;21.75;15.07;;;9.40;96.00;;;;;;5113927;28;20020;-47
2023/10/28 06:16:20;;;;;;;20.70;14.50;;;9.50;96.00;;;;;;5112641;28;20020;-46
2023/10/28 06:18:51;;;;;;;24.33;15.60;;;9.50;96.00;;;;;;5100419;28;20034;-46
2023/10/28 06:21:18;;;;;;;25.58;17.00;;;9.50;96.00;;;;;;5095277;28;20026;-46
2023/10/28 06:23:45;;;;;;;25.08;16.38;;;9.50;96.00;;;;;;5082766;28;20465;-45
2023/10/28 06:26:11;;;;;;;28.70;16.50;;;9.50;96.00;;;;;;5091893;28;20023;-48
2023/10/28 06:28:45;;;;;;;23.95;15.82;;;9.50;96.10;;;;;;5077805;28;20019;-47
2023/10/28 06:31:14;;;;;;;27.65;16.77;;;9.50;96.00;;;;;;5093626;28;20020;-49
2023/10/28 06:33:42;;;;;;;26.35;16.17;;;9.60;96.00;;;;;;5090071;28;20084;-49
2023/10/28 06:36:09;;;;;;;32.47;17.20;;;9.50;96.10;;;;;;5100851;28;20123;-50
2023/10/28 06:38:35;;;;;;;28.15;16.55;;;9.50;96.00;;;;;;5081906;28;20027;-48
2023/10/28 06:41:02;;;;;;;28.65;16.80;;;9.50;96.10;;;;;;5091897;28;20036;-48
2023/10/28 06:43:33;;;;;;;24.23;15.85;;;9.50;96.10;;;;;;5095791;28;20024;-47
2023/10/28 06:46:05;;;;;;;28.42;17.30;;;9.60;96.10;;;;;;5099277;28;20102;-47
2023/10/28 06:48:33;;;;;;;28.80;17.27;;;9.60;96.10;;;;;;5095104;28;20362;-45
2023/10/28 06:51:00;;;;;;;30.15;18.25;;;9.60;96.10;;;;;;5089115;28;20027;-49
2023/10/28 06:53:26;;;;;;;27.73;17.65;;;9.60;96.10;;;;;;5091311;28;20020;-49
2023/10/28 06:56:01;;;;;;;26.88;16.08;;;9.60;96.10;;;;;;5088545;28;20406;-52
2023/10/28 06:58:31;;;;;;;31.35;17.90;;;9.60;96.10;;;;;;5064788;28;20448;-50
2023/10/28 07:00:59;;;;;;;29.38;16.98;;;9.60;96.10;;;;;;5093181;28;20101;-47
2023/10/28 07:03:27;;;;;;;27.65;17.40;;;9.60;96.10;;;;;;5090682;28;20052;-46
2023/10/28 07:05:56;;;;;;;29.50;17.45;;;9.70;96.10;;;;;;5081652;28;20346;-50
2023/10/28 07:08:23;;;;;;;29.45;18.05;;;9.70;96.10;;;;;;5093843;28;20361;-48
2023/10/28 07:10:53;;;;;;;30.63;18.77;;;9.70;96.10;;;;;;5091858;28;20019;-47
2023/10/28 07:13:18;;;;;;;28.25;18.08;;;9.70;96.10;;;;;;5096058;28;20032;-49
2023/10/28 07:15:45;;;;;;;30.73;18.70;;;9.70;96.10;;;;;;5087957;28;20035;-49
2023/10/28 07:18:13;;;;;;;32.42;18.80;;;9.70;96.10;;;;;;5092428;28;20039;-48
2023/10/28 07:20:40;;;;;;;31.33;18.20;;;9.70;96.10;;;;;;5092406;28;20449;-47
2023/10/28 07:23:08;;;;;;;30.63;18.40;;;9.80;96.10;;;;;;5074522;28;20071;-46
2023/10/28 07:25:36;;;;;;;30.10;18.80;;;9.70;96.20;;;;;;5086397;28;20056;-47
2023/10/28 07:28:04;;;;;;;35.28;18.50;;;9.70;96.10;;;;;;5070376;28;20346;-49
2023/10/28 07:30:32;;;;;;;29.90;17.40;;;9.80;96.10;;;;;;5101772;28;20074;-47
2023/10/28 07:33:01;;;;;;;30.57;19.43;;;9.80;96.20;;;;;;5096288;28;20035;-48
2023/10/28 07:35:28;;;;;;;30.42;18.60;;;9.90;96.10;;;;;;5101885;28;20068;-51
2023/10/28 07:37:56;;;;;;;29.75;18.60;;;9.80;96.10;;;;;;5097799;28;20039;-46
2023/10/28 07:40:23;;;;;;;27.23;17.55;;;9.90;96.10;;;;;;5097663;28;20032;-45
2023/10/28 07:42:50;;;;;;;30.17;18.42;;;9.90;96.20;;;;;;5087560;28;20035;-46
2023/10/28 07:45:21;;;;;;;32.75;18.92;;;9.90;96.10;;;;;;5090412;28;20068;-45
2023/10/28 07:47:47;;;;;;;31.67;18.60;;;9.90;96.10;;;;;;5092758;28;20072;-48
2023/10/28 07:50:14;;;;;;;32.75;18.02;;;9.90;96.10;;;;;;5098052;28;20035;-47
2023/10/28 07:52:43;;;;;;;36.67;20.50;;;9.90;96.10;;;;;;5100236;28;20059;-47
2023/10/28 07:55:11;;;;;;;33.58;19.45;;;10.00;96.10;;;;;;5091065;28;20032;-46
2023/10/28 07:57:38;;;;;;;29.73;18.33;;;10.00;96.10;;;;;;5096749;28;20020;-47
2023/10/28 08:00:05;;;;;;;33.00;18.73;;;10.00;96.10;;;;;;5098422;28;20028;-45
2023/10/28 08:02:33;;;;;;;39.90;19.23;;;10.00;96.10;;;;;;5102370;28;20035;-48
2023/10/28 08:05:00;;;;;;;34.67;20.45;;;10.10;96.10;;;;;;5097780;28;20015;-45
2023/10/28 08:07:27;;;;;;;33.08;20.13;;;10.10;96.00;;;;;;5098799;28;20437;-45
2023/10/28 08:09:53;;;;;;;36.03;19.35;;;10.10;96.00;;;;;;5095785;28;20043;-46
2023/10/28 08:12:19;;;;;;;34.13;17.63;;;10.10;96.00;;;;;;5099067;28;20024;-48
2023/10/28 08:14:47;;;;;;;30.40;19.98;;;10.10;96.00;;;;;;5095409;28;20129;-45
2023/10/28 08:17:18;;;;;;;35.83;20.10;;;10.00;96.00;;;;;;5092610;28;20032;-45
2023/10/28 08:19:47;;;;;;;31.05;18.27;;;10.10;96.00;;;;;;5092730;28;20168;-46
2023/10/28 08:22:15;;;;;;;34.05;17.95;;;10.10;96.00;;;;;;5080741;28;20020;-46
2023/10/28 08:24:44;;;;;;;33.92;19.38;;;10.10;96.00;;;;;;5095781;28;20174;-46
2023/10/28 08:27:12;;;;;;;31.02;18.92;;;10.10;96.00;;;;;;5095033;28;20017;-47
2023/10/28 08:29:39;;;;;;;33.97;19.63;;;10.10;96.10;;;;;;5098147;28;20036;-46
2023/10/28 08:32:06;;;;;;;29.85;19.38;;;10.10;96.00;;;;;;5093417;28;20023;-49
2023/10/28 08:34:34;;;;;;;36.63;19.83;;;10.10;96.10;;;;;;5093848;28;20039;-46
2023/10/28 08:37:00;;;;;;;33.63;20.65;;;10.10;96.00;;;;;;5093866;28;20812;-46
2023/10/28 08:39:31;;;;;;;37.45;19.80;;;10.20;96.10;;;;;;5077039;28;20032;-45
2023/10/28 08:42:04;;;;;;;33.33;19.75;;;10.20;96.00;;;;;;5096653;28;20027;-47
2023/10/28 08:44:33;;;;;;;28.75;18.35;;;10.20;96.10;;;;;;5075644;28;20504;-46
2023/10/28 08:47:00;;;;;;;31.83;20.77;;;10.20;96.10;;;;;;5079987;28;20042;-45
2023/10/28 08:49:32;;;;;;;38.55;21.08;;;10.30;96.10;;;;;;5094743;28;20137;-46
2023/10/28 08:52:04;;;;;;;37.67;20.75;;;10.40;96.10;;;;;;5098464;28;20020;-46
2023/10/28 08:54:45;;;;;;;39.17;21.45;;;10.30;96.10;;;;;;5077669;28;20028;-46
2023/10/28 08:57:13;;;;;;;35.70;22.88;;;10.30;96.10;;;;;;5077663;28;20111;-46
2023/10/28 08:59:40;;;;;;;38.83;23.57;;;10.30;96.10;;;;;;5095656;28;20093;-47
2023/10/28 09:02:10;;;;;;;42.65;24.30;;;10.40;96.10;;;;;;5076080;28;20361;-46
2023/10/28 09:04:42;;;;;;;38.20;19.65;;;10.40;96.10;;;;;;5061214;28;20031;-46
2023/10/28 09:07:08;;;;;;;42.33;23.38;;;10.50;96.20;;;;;;5115112;28;20027;-48
2023/10/28 09:09:37;;;;;;;39.47;22.50;;;10.50;96.20;;;;;;5105723;28;20031;-47
2023/10/28 09:12:08;;;;;;;45.45;26.00;;;10.60;96.20;;;;;;5106006;28;20019;-48
2023/10/28 09:14:38;;;;;;;40.83;23.95;;;10.70;96.10;;;;;;5095162;28;20431;-47
2023/10/28 09:17:04;;;;;;;38.90;24.50;;;10.70;96.10;;;;;;5114251;28;20024;-50
2023/10/28 09:19:32;;;;;;;48.63;23.65;;;10.80;96.20;;;;;;5096165;28;20126;-51
2023/10/28 09:22:00;;;;;;;43.88;23.88;;;10.80;96.10;;;;;;5106567;28;20020;-47
2023/10/28 09:24:26;;;;;;;48.80;24.50;;;10.70;96.00;;;;;;5104316;28;20052;-46
2023/10/28 09:26:53;;;;;;;39.10;24.25;;;10.80;96.10;;;;;;5104484;28;20039;-45
2023/10/28 09:29:33;;;;;;;42.05;23.88;;;10.90;96.10;;;;;;5110905;28;20122;-47
2023/10/28 09:32:08;;;;;;;41.50;24.60;;;10.90;96.10;;;;;;5110764;28;20047;-45
2023/10/28 09:34:39;;;;;;;46.50;25.70;;;11.10;96.20;;;;;;5092378;28;20338;-47
2023/10/28 09:37:11;;;;;;;40.55;24.08;;;11.20;96.10;;;;;;5099636;28;20032;-50
2023/10/28 09:39:41;;;;;;;40.70;24.13;;;11.30;96.10;;;;;;5094396;28;20028;-44
2023/10/28 09:42:12;;;;;;;46.25;25.67;;;11.30;95.90;;;;;;5094424;28;20032;-48
2023/10/28 09:44:45;;;;;;;45.10;24.02;;;11.20;95.70;;;;;;5088673;28;20085;-45
2023/10/28 09:47:21;;;;;;;41.15;24.60;;;11.20;95.60;;;;;;5114758;28;20016;-45
2023/10/28 09:49:57;;;;;;;35.55;24.83;;;11.20;95.70;;;;;;5096615;28;20467;-46
2023/10/28 09:52:30;;;;;;;42.78;24.90;;;11.20;95.50;;;;;;5113846;28;20540;-45
2023/10/28 09:55:04;;;;;;;33.30;22.25;;;11.20;95.50;;;;;;5079985;28;20027;-44
2023/10/28 09:57:42;;;;;;;37.88;23.20;;;11.20;95.50;;;;;;5079021;28;20035;-45
2023/10/28 10:00:17;;;;;;;34.92;23.20;;;11.30;95.40;;;;;;5111205;28;20106;-44
2023/10/28 10:03:15;;;;;;;34.92;23.48;;;11.30;95.40;;;;;;5105652;28;20050;-49
2023/10/28 10:05:46;;;;;;;34.78;23.33;;;11.30;95.30;;;;;;5099259;28;20036;-45
2023/10/28 10:08:33;;;;;;;34.90;23.33;;;11.30;95.20;;;;;;5109556;28;20039;-45
2023/10/28 10:11:00;;;;;;;36.22;23.48;;;11.40;95.10;;;;;;5097298;28;20383;-45
2023/10/28 10:13:27;;;;;;;33.05;22.48;;;11.40;95.10;;;;;;5113521;28;20028;-46
2023/10/28 10:16:07;;;;;;;32.63;22.70;;;11.30;95.00;;;;;;5105712;28;20026;-45
2023/10/28 10:18:45;;;;;;;;;;;11.40;94.90;;;;;;5095929;28;20460;-45
2023/10/28 10:21:18;;;;;;;31.95;20.33;;;11.40;95.00;;;;;;5074358;28;19945;-46
2023/10/28 10:23:54;;;;;;;34.97;23.00;;;11.50;95.00;;;;;;5104738;28;20058;-45
2023/10/28 10:26:31;;;;;;;30.90;22.27;;;11.50;95.00;;;;;;5105879;28;20108;-49
2023/10/28 10:29:10;;;;;;;29.25;21.35;;;11.60;94.80;;;;;;5059530;28;20491;-47
2023/10/28 10:31:37;;;;;;;29.52;21.67;;;11.60;94.80;;;;;;5102184;28;20020;-49
2023/10/28 10:34:37;;;;;;;33.13;21.27;;;11.70;94.70;;;;;;5084580;28;20020;-45
2023/10/28 10:37:32;;;;;;;31.08;20.95;;;11.80;94.60;;;;;;5110355;28;20216;-45
2023/10/28 10:40:07;;;;;;;28.83;21.02;;;11.90;94.40;;;;;;5103382;28;20023;-47
2023/10/28 10:42:36;;;;;;;26.85;20.00;;;11.90;94.20;;;;;;5074170;28;20465;-49
2023/10/28 10:45:06;;;;;;;26.67;19.73;;;12.00;94.10;;;;;;5088467;28;20463;-46
2023/10/28 10:47:38;;;;;;;24.98;18.90;;;12.10;93.80;;;;;;5101713;28;20035;-46
2023/10/28 10:50:06;;;;;;;25.67;18.20;;;12.00;93.50;;;;;;5102517;28;20359;-46
2023/10/28 10:52:36;;;;;;;25.58;17.60;;;12.00;93.30;;;;;;5095321;28;20043;-45
2023/10/28 10:55:04;;;;;;;24.58;18.17;;;12.00;93.20;;;;;;5103775;28;20038;-46
2023/10/28 10:57:33;;;;;;;23.13;16.92;;;11.90;93.20;;;;;;5094871;28;20078;-47
2023/10/28 11:00:00;;;;;;;20.65;16.08;;;11.90;93.10;;;;;;5102705;28;20424;-48
2023/10/28 11:02:28;;;;;;;24.05;17.15;;;11.90;93.20;;;;;;5103244;28;20024;-46
2023/10/28 11:04:58;;;;;;;17.98;16.08;;;12.00;93.30;;;;;;5107069;28;20027;-48
2023/10/28 11:07:28;;;;;;;21.50;18.17;;;11.90;93.20;;;;;;5105973;28;20123;-47
2023/10/28 11:09:55;;;;;;;24.15;17.20;;;11.90;93.10;;;;;;5100675;28;20016;-47
2023/10/28 11:12:24;;;;;;;19.17;16.38;;;11.90;93.00;;;;;;5109047;28;20035;-46
2023/10/28 11:14:55;;;;;;;19.27;15.00;;;11.90;93.10;;;;;;5107031;28;20024;-47
2023/10/28 11:17:23;;;;;;;22.92;16.30;;;11.90;92.90;;;;;;5092534;28;20024;-47
2023/10/28 11:19:51;;;;;;;18.70;15.27;;;11.90;92.70;;;;;;5092543;28;20081;-49
2023/10/28 11:22:20;;;;;;;19.00;15.63;;;12.10;92.90;;;;;;5106579;28;20046;-49
2023/10/28 11:24:55;;;;;;;20.02;15.23;;;12.20;92.80;;;;;;5102621;28;20067;-49
2023/10/28 11:27:26;;;;;;;17.33;14.05;;;12.20;92.70;;;;;;5081783;28;20093;-48
2023/10/28 11:29:58;;;;;;;17.58;15.15;;;12.30;92.20;;;;;;5083324;28;20036;-47
2023/10/28 11:32:28;;;;;;;18.00;15.35;;;12.20;92.10;;;;;;5105108;28;20023;-47
2023/10/28 11:34:56;;;;;;;;;;;12.30;92.10;;;;;;5090863;28;20117;-47
2023/10/28 11:37:23;;;;;;;18.13;14.38;;;12.20;92.00;;;;;;5088221;28;19926;-48
2023/10/28 11:39:49;;;;;;;18.92;14.80;;;12.30;92.10;;;;;;5074237;28;20048;-50
2023/10/28 11:42:37;;;;;;;16.92;14.90;;;12.20;91.90;;;;;;5106476;27;20019;-47
2023/10/28 11:45:07;;;;;;;16.45;14.73;;;12.20;91.90;;;;;;5113415;27;20019;-48
2023/10/28 11:47:46;;;;;;;16.13;14.15;;;12.20;92.10;;;;;;5108317;28;20134;-47
2023/10/28 11:50:12;;;;;;;19.98;15.95;;;12.10;91.90;;;;;;5110533;27;20032;-51
2023/10/28 11:52:41;;;;;;;20.00;15.40;;;12.20;92.10;;;;;;5114013;27;20035;-48
2023/10/28 11:55:09;;;;;;;16.77;15.02;;;12.20;92.10;;;;;;5108871;28;20036;-51
2023/10/28 11:57:37;;;;;;;20.00;14.80;;;12.20;91.80;;;;;;5112472;28;20110;-52
2023/10/28 12:00:09;;;;;;;15.40;13.77;;;12.20;91.80;;;;;;5108658;28;20452;-50
2023/10/28 12:02:36;;;;;;;20.05;13.63;;;12.20;91.70;;;;;;5110347;28;20028;-48
2023/10/28 12:05:06;;;;;;;14.60;12.93;;;12.20;91.40;;;;;;5109349;28;20039;-48
2023/10/28 12:07:35;;;;;;;;;;;12.20;91.70;;;;;;5108249;27;20024;-49
2023/10/28 12:10:06;;;;;;;16.00;14.35;;;12.30;91.80;;;;;;5111851;28;19908;-48
2023/10/28 12:12:38;;;;;;;16.88;15.07;;;12.40;92.00;;;;;;5106396;28;20048;-48
2023/10/28 12:15:05;;;;;;;20.98;16.67;;;12.50;91.90;;;;;;5106017;28;20066;-49
2023/10/28 12:17:33;;;;;;;20.80;15.32;;;12.60;91.80;;;;;;5106608;28;20102;-48
2023/10/28 12:20:00;;;;;;;14.30;12.80;;;12.60;91.80;;;;;;5109637;28;20453;-48
2023/10/28 12:22:28;;;;;;;19.35;15.10;;;12.70;91.30;;;;;;5080431;28;20039;-48
2023/10/28 12:24:55;;;;;;;15.68;13.15;;;12.60;90.90;;;;;;5103490;28;20024;-48
2023/10/28 12:27:22;;;;;;;15.55;13.43;;;12.60;90.90;;;;;;5110910;27;20496;-48
2023/10/28 12:29:51;;;;;;;22.38;14.27;;;12.50;90.60;;;;;;5096725;28;20475;-48
2023/10/28 12:32:21;;;;;;;17.80;15.10;;;12.50;90.60;;;;;;5107785;28;20028;-49
2023/10/28 12:34:46;;;;;;;15.15;13.55;;;12.40;90.80;;;;;;5111566;28;20448;-50
2023/10/28 12:37:13;;;;;;;14.60;13.07;;;12.40;91.10;;;;;;5096791;28;20042;-50
2023/10/28 12:39:43;;;;;;;17.13;13.43;;;12.40;91.20;;;;;;5113334;28;20403;-50
2023/10/28 12:42:10;;;;;;;15.18;13.60;;;12.20;91.10;;;;;;5100216;28;20032;-48
2023/10/28 12:44:37;;;;;;;16.55;14.70;;;12.20;91.30;;;;;;5112170;28;20430;-51